Terminal Aerodrome Forecast
Issued by NWS

Home | Current Version | Previous Version | Text Only | Print | Product List | Glossary On
Versions: 1 2 3 4 5 6 7 8 9 10 11 12
000
FTUS46 KMTR 301100
TAFMRY
TAF
KMRY 301122Z 3012/3112 00000KT P6SM SCT250
     FM301800 VRB05KT P6SM SCT250
     FM302000 26005KT P6SM SCT250
     FM310100 20003KT P6SM OVC090
     FM310500 14004KT P6SM OVC050=

USA.gov is the U.S. government's official web portal to all federal, state and local government web resources and services.